createdAt,value
2022-07-29T00:01:59.248Z,44.79
2022-07-29T00:07:01.895Z,44.12
2022-07-29T00:12:07.681Z,44.54
2022-07-29T00:17:12.673Z,44.76
2022-07-29T00:22:22.099Z,44.92
2022-07-29T00:27:26.240Z,45.21
2022-07-29T00:32:29.011Z,45.38
2022-07-29T00:37:31.859Z,45.50
2022-07-29T00:42:45.245Z,45.64
2022-07-29T00:47:48.182Z,45.68
2022-07-29T00:52:52.369Z,45.88
2022-07-29T00:57:58.476Z,45.80
2022-07-29T01:03:01.169Z,45.76
2022-07-29T01:08:04.811Z,45.84
2022-07-29T01:13:10.367Z,46.09
2022-07-29T01:18:18.804Z,46.20
2022-07-29T01:23:51.838Z,46.01
2022-07-29T01:29:07.496Z,46.07
2022-07-29T01:34:16.301Z,46.16
2022-07-29T01:39:25.422Z,46.45
2022-07-29T01:44:35.017Z,46.27
2022-07-29T01:49:42.021Z,46.39
2022-07-29T01:54:50.892Z,46.33
2022-07-29T01:59:56.705Z,46.38
2022-07-29T02:05:01.327Z,46.61
2022-07-29T02:10:05.551Z,46.31
2022-07-29T02:15:11.518Z,46.53
2022-07-29T02:20:15.420Z,46.67
2022-07-29T02:25:19.543Z,46.94
2022-07-29T02:30:24.903Z,46.74
2022-07-29T02:35:28.515Z,46.69
2022-07-29T02:40:41.612Z,46.84
2022-07-29T02:45:51.697Z,47.01
2022-07-29T02:51:03.594Z,47.26
2022-07-29T02:56:09.946Z,47.01
2022-07-29T03:01:21.664Z,47.08
2022-07-29T03:06:37.802Z,47.34
2022-07-29T03:11:49.719Z,47.31
2022-07-29T03:16:55.364Z,47.56
2022-07-29T03:21:58.980Z,47.30
2022-07-29T03:27:02.207Z,46.95
2022-07-29T03:32:08.854Z,47.26
2022-07-29T03:37:11.714Z,47.35
2022-07-29T03:42:17.254Z,47.08
2022-07-29T03:47:35.189Z,46.90
2022-07-29T03:52:50.437Z,47.03
2022-07-29T03:57:54.266Z,46.72
2022-07-29T04:02:58.921Z,46.65
2022-07-29T04:08:01.868Z,46.88
2022-07-29T04:13:04.551Z,46.91
2022-07-29T04:18:08.574Z,46.84
2022-07-29T04:23:11.326Z,47.13
2022-07-29T04:28:13.988Z,47.09
2022-07-29T04:33:21.193Z,47.11
2022-07-29T04:38:27.551Z,47.08
2022-07-29T04:43:30.322Z,46.92
2022-07-29T04:48:41.061Z,47.39
2022-07-29T04:53:43.810Z,47.61
2022-07-29T04:58:46.484Z,47.29
2022-07-29T05:03:50.729Z,47.69
2022-07-29T05:08:53.387Z,47.94
2022-07-29T05:13:56.102Z,47.97
2022-07-29T05:19:00.185Z,47.66
2022-07-29T05:24:03.011Z,48.15
2022-07-29T05:29:05.688Z,47.75
2022-07-29T05:34:09.953Z,48.13
2022-07-29T05:39:13.793Z,48.28
2022-07-29T05:44:16.963Z,48.17
2022-07-29T05:49:27.033Z,48.38
2022-07-29T05:54:30.150Z,48.45
2022-07-29T05:59:32.989Z,48.32
2022-07-29T06:04:37.117Z,48.11
2022-07-29T06:09:39.998Z,48.19
2022-07-29T06:14:42.710Z,48.10
2022-07-29T06:19:47.144Z,48.46
2022-07-29T06:24:49.833Z,48.59
2022-07-29T06:29:52.550Z,48.61
2022-07-29T06:35:11.830Z,48.70
2022-07-29T06:40:36.998Z,48.46
2022-07-29T06:45:42.027Z,48.55
2022-07-29T06:50:46.793Z,48.57
2022-07-29T06:55:49.773Z,48.82
2022-07-29T07:00:52.506Z,49.05
2022-07-29T07:05:56.981Z,49.29
2022-07-29T07:10:59.676Z,49.39
2022-07-29T07:16:03.025Z,49.50
2022-07-29T07:21:07.262Z,49.74
2022-07-29T07:26:09.983Z,50.19
2022-07-29T07:31:12.864Z,49.12
2022-07-29T07:36:16.934Z,49.24
2022-07-29T07:41:20.612Z,48.67
2022-07-29T07:46:23.494Z,49.27
2022-07-29T07:51:27.899Z,49.13
2022-07-29T07:56:35.040Z,50.21
2022-07-29T08:01:47.912Z,49.68
2022-07-29T08:07:00.340Z,49.61
2022-07-29T08:12:04.629Z,50.30
2022-07-29T08:17:07.465Z,49.51
2022-07-29T08:22:11.809Z,50.67
2022-07-29T08:27:40.885Z,49.68
2022-07-29T08:32:55.254Z,50.64
2022-07-29T08:37:59.804Z,50.59
2022-07-29T08:43:08.345Z,49.90
2022-07-29T08:48:13.935Z,50.02
2022-07-29T08:53:19.481Z,49.57
2022-07-29T08:58:25.061Z,50.17
2022-07-29T09:03:33.576Z,49.18
2022-07-29T09:08:37.587Z,48.59
2022-07-29T09:13:40.309Z,48.49
2022-07-29T09:18:45.139Z,48.73
2022-07-29T09:24:04.275Z,48.80
2022-07-29T09:29:11.990Z,48.45
2022-07-29T09:34:18.280Z,47.92
2022-07-29T09:39:32.104Z,48.19
2022-07-29T09:44:45.830Z,48.48
2022-07-29T09:49:58.851Z,48.80
2022-07-29T09:55:17.860Z,48.81
2022-07-29T10:00:23.853Z,49.19
2022-07-29T10:05:36.610Z,49.34
2022-07-29T10:10:43.431Z,49.68
2022-07-29T10:15:47.321Z,49.99
2022-07-29T10:20:50.642Z,49.69
2022-07-29T10:25:55.322Z,49.90
2022-07-29T10:31:03.805Z,50.28
2022-07-29T10:36:20.911Z,50.40
2022-07-29T10:41:44.735Z,50.41
2022-07-29T10:46:48.871Z,50.51
2022-07-29T10:52:03.594Z,50.49
2022-07-29T10:57:18.497Z,50.71
2022-07-29T11:02:45.079Z,50.93
2022-07-29T11:08:21.207Z,51.07
2022-07-29T11:13:52.217Z,51.49
2022-07-29T11:19:29.795Z,51.55
2022-07-29T11:24:34.977Z,51.46
2022-07-29T11:29:43.106Z,51.47
2022-07-29T11:34:46.218Z,51.82
2022-07-29T11:40:09.875Z,51.73
2022-07-29T11:45:43.713Z,51.83
2022-07-29T11:50:45.469Z,51.80
2022-07-29T11:55:58.128Z,51.84
2022-07-29T12:01:04.759Z,51.93
2022-07-29T12:06:15.055Z,52.09
2022-07-29T12:11:21.228Z,52.26
2022-07-29T12:16:37.833Z,52.36
2022-07-29T12:21:52.304Z,52.24
2022-07-29T12:27:00.429Z,52.32
2022-07-29T12:32:14.528Z,52.62
2022-07-29T12:37:33.317Z,52.65
2022-07-29T12:43:07.373Z,52.77
2022-07-29T12:48:12.089Z,53.01
2022-07-29T12:53:15.522Z,52.66
2022-07-29T12:58:34.803Z,53.13
2022-07-29T13:03:57.141Z,53.48
2022-07-29T13:09:02.380Z,53.87
2022-07-29T13:14:07.194Z,54.64
2022-07-29T13:19:13.982Z,55.49
2022-07-29T13:24:19.776Z,56.01
2022-07-29T13:29:22.654Z,55.59
2022-07-29T13:34:27.444Z,56.57
2022-07-29T13:39:31.138Z,56.45
2022-07-29T13:44:33.997Z,55.88
2022-07-29T13:49:38.215Z,55.84
2022-07-29T13:54:42.584Z,55.86
2022-07-29T13:59:48.471Z,55.52
2022-07-29T14:04:56.337Z,55.41
2022-07-29T14:09:59.147Z,55.20
2022-07-29T14:15:01.921Z,55.12
2022-07-29T14:20:07.427Z,55.07
2022-07-29T14:25:15.000Z,55.13
2022-07-29T14:30:18.178Z,54.91
2022-07-29T14:35:22.239Z,55.08
2022-07-29T14:40:26.632Z,55.08
2022-07-29T14:45:30.135Z,55.01
2022-07-29T14:50:34.448Z,55.01
2022-07-29T14:55:37.448Z,55.13
2022-07-29T15:00:40.298Z,55.06
2022-07-29T15:05:44.390Z,55.22
2022-07-29T15:10:47.282Z,55.20
2022-07-29T15:15:50.829Z,55.06
2022-07-29T15:20:55.049Z,55.17
2022-07-29T15:25:57.767Z,55.44
2022-07-29T15:31:00.473Z,55.49
2022-07-29T15:36:05.605Z,55.55
2022-07-29T15:41:08.693Z,55.60
2022-07-29T15:46:32.897Z,55.55
2022-07-29T15:51:37.561Z,55.71
2022-07-29T15:56:40.314Z,55.46
2022-07-29T16:01:43.122Z,55.26
2022-07-29T16:06:48.509Z,55.17
2022-07-29T16:11:53.559Z,55.19
2022-07-29T16:16:57.048Z,55.27
2022-07-29T16:22:01.365Z,55.19
2022-07-29T16:27:04.223Z,55.31
2022-07-29T16:32:07.919Z,55.46
2022-07-29T16:37:12.183Z,55.37
2022-07-29T16:42:31.015Z,55.24
2022-07-29T16:47:38.019Z,55.40
2022-07-29T16:52:42.289Z,55.42
2022-07-29T16:57:45.500Z,55.65
2022-07-29T17:02:48.343Z,56.10
2022-07-29T17:07:52.495Z,55.97
2022-07-29T17:12:55.291Z,55.70
2022-07-29T17:17:58.862Z,55.90
2022-07-29T17:23:03.053Z,55.81
2022-07-29T17:28:05.976Z,55.69
2022-07-29T17:33:08.681Z,55.79
2022-07-29T17:38:12.835Z,55.84
2022-07-29T17:43:15.586Z,55.73
2022-07-29T17:48:18.673Z,55.69
2022-07-29T17:53:23.208Z,55.81
2022-07-29T17:58:26.198Z,55.62
2022-07-29T18:03:28.886Z,55.57
2022-07-29T18:08:33.019Z,55.54
2022-07-29T18:13:35.734Z,55.87
2022-07-29T18:18:38.730Z,56.17
2022-07-29T18:23:42.799Z,56.13
2022-07-29T18:28:45.555Z,56.35
2022-07-29T18:33:48.259Z,56.33
2022-07-29T18:38:52.350Z,56.56
2022-07-29T18:43:55.027Z,56.51
2022-07-29T18:48:58.054Z,56.46
2022-07-29T18:54:02.170Z,56.63
2022-07-29T18:59:05.335Z,56.81
2022-07-29T19:04:08.259Z,56.73
2022-07-29T19:09:12.508Z,56.95
2022-07-29T19:14:15.433Z,56.71
2022-07-29T19:19:18.247Z,56.56
2022-07-29T19:24:22.522Z,56.41
2022-07-29T19:29:26.479Z,56.55
2022-07-29T19:34:29.501Z,56.26
2022-07-29T19:39:35.248Z,56.48
2022-07-29T19:44:38.768Z,56.58
2022-07-29T19:49:41.618Z,56.63
2022-07-29T19:54:46.359Z,56.55
2022-07-29T19:59:49.161Z,56.57
2022-07-29T20:04:52.419Z,56.61
2022-07-29T20:09:56.705Z,56.66
2022-07-29T20:14:59.863Z,56.52
2022-07-29T20:20:04.172Z,56.56
2022-07-29T20:25:10.012Z,56.60
2022-07-29T20:30:14.378Z,56.54
2022-07-29T20:35:17.316Z,56.70
2022-07-29T20:40:25.365Z,56.68
2022-07-29T20:45:28.073Z,56.57
2022-07-29T20:50:30.826Z,56.67
2022-07-29T20:55:34.887Z,56.75
2022-07-29T21:00:37.834Z,56.66
2022-07-29T21:05:43.210Z,56.59
2022-07-29T21:10:48.242Z,56.81
2022-07-29T21:15:51.854Z,56.53
2022-07-29T21:20:55.035Z,56.47
2022-07-29T21:26:00.409Z,56.69
2022-07-29T21:31:05.989Z,56.97
2022-07-29T21:36:46.068Z,56.85
2022-07-29T21:41:33.671Z,56.63
2022-07-29T21:46:36.575Z,56.51
2022-07-29T21:51:39.879Z,56.90
2022-07-29T21:56:43.933Z,56.80
2022-07-29T22:01:54.027Z,56.89
2022-07-29T22:06:58.051Z,57.02
2022-07-29T22:12:02.829Z,56.94
2022-07-29T22:17:05.731Z,56.78
2022-07-29T22:22:08.482Z,57.14
2022-07-29T22:27:12.863Z,57.18
2022-07-29T22:32:15.582Z,57.31
2022-07-29T22:37:18.450Z,57.11
2022-07-29T22:42:22.512Z,57.24
2022-07-29T22:47:46.317Z,57.43
2022-07-29T22:52:48.125Z,57.56
2022-07-29T22:57:52.425Z,57.80
2022-07-29T23:02:55.137Z,57.72
2022-07-29T23:07:57.850Z,58.17
2022-07-29T23:13:01.910Z,58.29
2022-07-29T23:18:04.846Z,58.17
2022-07-29T23:23:07.599Z,58.12
2022-07-29T23:28:13.168Z,58.16
2022-07-29T23:33:16.091Z,57.98
2022-07-29T23:38:19.069Z,58.26
2022-07-29T23:43:23.325Z,58.18
2022-07-29T23:48:27.067Z,58.33
2022-07-29T23:53:29.933Z,58.38
2022-07-29T23:58:34.359Z,58.43
